Time;durP1;ratioP1;P1;durP2;ratioP2;P2;SDS_P1;SDS_P2;PMS_P1;PMS_P2;Temp;Humidity;BMP_temperature;BMP_pressure;BME280_temperature;BME280_humidity;BME280_pressure;Samples;Min_cycle;Max_cycle;Signal;HPM_P1;HPM_P2
2022/03/23 00:01:55;;;;;;;8.70;7.90;;;;;;;;;;5003311;28;20201;-80
2022/03/23 00:04:22;;;;;;;8.38;7.30;;;;;;;;;;4999501;28;20215;-79
2022/03/23 00:06:49;;;;;;;9.60;8.43;;;;;;;;;;5012880;28;20227;-79
2022/03/23 00:09:16;;;;;;;12.45;8.50;;;;;;;;;;5004097;28;20204;-79
2022/03/23 00:11:45;;;;;;;10.05;8.98;;;;;;;;;;5015428;28;20207;-79
2022/03/23 00:14:12;;;;;;;12.35;8.70;;;;;;;;;;5007548;28;20197;-80
2022/03/23 00:16:40;;;;;;;12.20;7.97;;;;;;;;;;4995007;28;20196;-80
2022/03/23 00:19:07;;;;;;;11.80;9.05;;;;;;;;;;5009448;28;20204;-79
2022/03/23 00:21:34;;;;;;;11.15;8.50;;;;;;;;;;5012910;28;20200;-78
2022/03/23 00:24:01;;;;;;;12.02;9.95;;;;;;;;;;4996177;28;20205;-78
2022/03/23 00:26:28;;;;;;;9.48;8.48;;;;;;;;;;4993101;28;20217;-79
2022/03/23 00:28:57;;;;;;;10.57;9.48;;;;;;;;;;4994579;28;20204;-78
2022/03/23 00:31:24;;;;;;;11.63;9.13;;;;;;;;;;4999661;28;20287;-78
2022/03/23 00:33:51;;;;;;;9.65;7.82;;;;;;;;;;5010396;28;20200;-79
2022/03/23 00:36:20;;;;;;;9.35;8.35;;;;;;;;;;5009839;28;20196;-78
2022/03/23 00:38:48;;;;;;;11.38;8.93;;;;;;;;;;5011547;28;20227;-81
2022/03/23 00:41:15;;;;;;;11.07;7.93;;;;;;;;;;4998808;28;20585;-78
2022/03/23 00:43:42;;;;;;;11.77;7.85;;;;;;;;;;5000210;28;20200;-79
2022/03/23 00:46:11;;;;;;;10.65;8.60;;;;;;;;;;5003839;28;20580;-78
2022/03/23 00:48:38;;;;;;;10.27;8.95;;;;;;;;;;5013744;28;20211;-78
2022/03/23 00:51:05;;;;;;;8.38;6.97;;;;;;;;;;5010358;28;20610;-78
2022/03/23 00:53:32;;;;;;;8.95;7.20;;;;;;;;;;5011908;28;20193;-79
2022/03/23 00:56:00;;;;;;;10.35;8.85;;;;;;;;;;4999762;28;20700;-78
2022/03/23 00:58:27;;;;;;;8.80;7.78;;;;;;;;;;5006095;28;20202;-78
2022/03/23 01:00:54;;;;;;;11.70;7.63;;;;;;;;;;5005488;28;20204;-78
2022/03/23 01:03:23;;;;;;;9.73;8.68;;;;;;;;;;5001643;28;20719;-79
2022/03/23 01:05:52;;;;;;;8.77;7.95;;;;;;;;;;5000011;28;20611;-79
2022/03/23 01:08:19;;;;;;;9.18;7.93;;;;;;;;;;5012673;28;20628;-78
2022/03/23 01:10:46;;;;;;;10.90;9.30;;;;;;;;;;5005694;28;20200;-77
2022/03/23 01:13:13;;;;;;;9.77;8.63;;;;;;;;;;5007746;28;20199;-78
2022/03/23 01:15:40;;;;;;;10.07;7.78;;;;;;;;;;4998749;28;20200;-77
2022/03/23 01:18:08;;;;;;;10.07;7.85;;;;;;;;;;5012003;28;20603;-79
2022/03/23 01:20:37;;;;;;;9.50;8.10;;;;;;;;;;5008623;28;20279;-79
2022/03/23 01:23:05;;;;;;;8.70;7.78;;;;;;;;;;5004092;28;20208;-78
2022/03/23 01:25:32;;;;;;;8.63;7.45;;;;;;;;;;4993394;28;20295;-79
2022/03/23 01:27:59;;;;;;;9.80;8.00;;;;;;;;;;4991872;28;20204;-78
2022/03/23 01:30:26;;;;;;;11.13;8.90;;;;;;;;;;5008964;28;20200;-78
2022/03/23 01:32:53;;;;;;;11.48;9.57;;;;;;;;;;5012682;28;20652;-77
2022/03/23 01:35:20;;;;;;;9.80;8.80;;;;;;;;;;4995014;28;20197;-77
2022/03/23 01:37:49;;;;;;;11.15;8.52;;;;;;;;;;5001767;28;20234;-79
2022/03/23 01:40:16;;;;;;;8.30;7.30;;;;;;;;;;5010822;28;20275;-78
2022/03/23 01:42:43;;;;;;;9.45;8.43;;;;;;;;;;5020754;28;20419;-78
2022/03/23 01:45:11;;;;;;;9.10;8.15;;;;;;;;;;4997493;28;20237;-78
2022/03/23 01:47:38;;;;;;;8.65;7.63;;;;;;;;;;5006971;28;20204;-78
2022/03/23 01:50:06;;;;;;;10.40;9.30;;;;;;;;;;5004230;28;20227;-80
2022/03/23 01:52:33;;;;;;;10.32;9.18;;;;;;;;;;5005766;28;20204;-80
2022/03/23 01:55:03;;;;;;;9.48;8.10;;;;;;;;;;5008859;28;20208;-79
2022/03/23 01:57:30;;;;;;;9.73;8.73;;;;;;;;;;5004916;28;20702;-79
2022/03/23 01:59:58;;;;;;;11.20;8.18;;;;;;;;;;5009056;28;20207;-79
2022/03/23 02:02:25;;;;;;;10.77;9.00;;;;;;;;;;5014338;28;20193;-78
2022/03/23 02:04:52;;;;;;;10.43;8.15;;;;;;;;;;5007508;28;20200;-78
2022/03/23 02:07:19;;;;;;;9.90;8.70;;;;;;;;;;5016246;28;20192;-78
2022/03/23 02:09:46;;;;;;;9.18;8.10;;;;;;;;;;5009989;28;20200;-78
2022/03/23 02:12:15;;;;;;;11.45;9.20;;;;;;;;;;5009985;28;20284;-78
2022/03/23 02:14:42;;;;;;;11.30;8.63;;;;;;;;;;5004210;28;20637;-78
2022/03/23 02:17:09;;;;;;;12.57;9.75;;;;;;;;;;4991948;28;20589;-78
2022/03/23 02:19:36;;;;;;;9.18;7.97;;;;;;;;;;5004376;28;20304;-78
2022/03/23 02:22:05;;;;;;;9.70;8.70;;;;;;;;;;5009678;28;20205;-78
2022/03/23 02:24:33;;;;;;;10.25;8.80;;;;;;;;;;4998881;28;20664;-78
2022/03/23 02:27:00;;;;;;;9.75;8.75;;;;;;;;;;5004443;28;20687;-78
2022/03/23 02:29:30;;;;;;;10.18;9.05;;;;;;;;;;5008339;28;20646;-78
2022/03/23 02:31:58;;;;;;;9.88;8.07;;;;;;;;;;4999508;28;20197;-78
2022/03/23 02:34:25;;;;;;;11.48;8.88;;;;;;;;;;4992903;28;20201;-78
2022/03/23 02:36:52;;;;;;;11.98;8.80;;;;;;;;;;5008556;28;20200;-78
2022/03/23 02:39:21;;;;;;;9.63;8.20;;;;;;;;;;5003003;28;20699;-78
2022/03/23 02:41:48;;;;;;;10.23;8.35;;;;;;;;;;4991484;28;20255;-78
2022/03/23 02:44:15;;;;;;;11.30;8.77;;;;;;;;;;5008999;28;20209;-79
2022/03/23 02:46:42;;;;;;;10.75;9.20;;;;;;;;;;5004498;28;20311;-78
2022/03/23 02:49:10;;;;;;;10.63;8.48;;;;;;;;;;5000275;28;20544;-78
2022/03/23 02:51:37;;;;;;;9.10;7.72;;;;;;;;;;5011330;28;20223;-78
2022/03/23 03:02:30;;;;;;;11.82;9.45;;;;;;;;;;4997726;28;20192;-78
2022/03/23 03:04:57;;;;;;;9.90;8.02;;;;;;;;;;5002388;28;20200;-78
2022/03/23 03:07:24;;;;;;;10.60;8.05;;;;;;;;;;5009363;28;20200;-79
2022/03/23 03:09:54;;;;;;;10.68;8.45;;;;;;;;;;5012089;28;20208;-78
2022/03/23 03:12:22;;;;;;;8.70;6.93;;;;;;;;;;4993882;28;20201;-78
2022/03/23 03:14:49;;;;;;;9.20;7.75;;;;;;;;;;4997063;28;20607;-78
2022/03/23 03:17:17;;;;;;;9.98;8.18;;;;;;;;;;5006524;28;20193;-77
2022/03/23 03:19:44;;;;;;;9.90;8.70;;;;;;;;;;5012383;28;20509;-78
2022/03/23 03:22:11;;;;;;;11.27;8.20;;;;;;;;;;4999122;28;20196;-78
2022/03/23 03:24:38;;;;;;;10.88;8.48;;;;;;;;;;5006955;28;20192;-79
2022/03/23 03:27:05;;;;;;;11.90;8.80;;;;;;;;;;4999158;28;20216;-80
2022/03/23 03:29:34;;;;;;;11.45;8.60;;;;;;;;;;4998395;28;20623;-79
2022/03/23 03:32:01;;;;;;;10.50;8.27;;;;;;;;;;5010432;28;20232;-79
2022/03/23 03:34:28;;;;;;;11.07;8.60;;;;;;;;;;5017661;28;20200;-79
2022/03/23 03:36:55;;;;;;;12.27;8.65;;;;;;;;;;5013594;28;20618;-77
2022/03/23 03:39:22;;;;;;;10.30;8.50;;;;;;;;;;5009591;28;20201;-78
2022/03/23 03:41:49;;;;;;;10.98;9.88;;;;;;;;;;4995458;28;20604;-78
2022/03/23 03:44:16;;;;;;;10.18;7.40;;;;;;;;;;4995172;28;20204;-78
2022/03/23 03:46:45;;;;;;;9.48;7.50;;;;;;;;;;5007900;28;20593;-78
2022/03/23 03:49:15;;;;;;;11.00;8.23;;;;;;;;;;5007081;28;20232;-78
2022/03/23 03:51:42;;;;;;;12.32;8.85;;;;;;;;;;5015132;28;20200;-78
2022/03/23 03:54:09;;;;;;;9.10;8.15;;;;;;;;;;5009623;28;20199;-77
2022/03/23 03:56:36;;;;;;;15.77;9.07;;;;;;;;;;5002247;28;20256;-75
2022/03/23 03:59:03;;;;;;;10.85;8.32;;;;;;;;;;5012323;28;20651;-75
2022/03/23 04:01:30;;;;;;;19.25;9.35;;;;;;;;;;4994363;28;20200;-74
2022/03/23 04:03:59;;;;;;;10.18;8.88;;;;;;;;;;4994601;28;20201;-76
2022/03/23 04:06:26;;;;;;;10.15;7.82;;;;;;;;;;5009795;28;20224;-75
2022/03/23 04:08:53;;;;;;;9.65;8.00;;;;;;;;;;5013185;28;20204;-75
2022/03/23 04:11:20;;;;;;;14.45;9.50;;;;;;;;;;5019264;28;20644;-76
2022/03/23 04:13:47;;;;;;;8.30;7.50;;;;;;;;;;5013707;28;20224;-75
2022/03/23 04:16:14;;;;;;;9.20;7.82;;;;;;;;;;5006285;28;20203;-75
2022/03/23 04:18:41;;;;;;;10.60;8.25;;;;;;;;;;5007502;28;20189;-75
2022/03/23 04:21:10;;;;;;;10.18;8.55;;;;;;;;;;5009979;28;20203;-74
2022/03/23 04:23:37;;;;;;;10.52;8.65;;;;;;;;;;5021018;28;20205;-75
2022/03/23 04:26:04;;;;;;;13.45;9.95;;;;;;;;;;5002203;28;20211;-75
2022/03/23 04:28:32;;;;;;;9.00;7.65;;;;;;;;;;5004266;28;20234;-75
2022/03/23 04:30:59;;;;;;;9.48;8.20;;;;;;;;;;5007886;28;20225;-74
2022/03/23 04:33:26;;;;;;;9.70;7.63;;;;;;;;;;5010744;28;20515;-78
2022/03/23 04:35:53;;;;;;;9.90;8.43;;;;;;;;;;5007392;28;20198;-75
2022/03/23 04:38:22;;;;;;;10.85;9.13;;;;;;;;;;5016437;28;20204;-75
2022/03/23 04:40:49;;;;;;;10.52;8.68;;;;;;;;;;5003156;28;20287;-74
2022/03/23 04:43:16;;;;;;;9.25;8.38;;;;;;;;;;4994651;28;20201;-75
2022/03/23 04:45:43;;;;;;;10.15;9.05;;;;;;;;;;5001494;28;20232;-74
2022/03/23 04:48:11;;;;;;;10.25;7.97;;;;;;;;;;5009009;28;20216;-75
2022/03/23 04:50:38;;;;;;;10.32;8.38;;;;;;;;;;5009977;28;20207;-75
2022/03/23 04:53:05;;;;;;;11.77;9.73;;;;;;;;;;5009360;28;20239;-74
2022/03/23 04:55:34;;;;;;;11.13;9.25;;;;;;;;;;5009384;28;20583;-76
2022/03/23 04:58:01;;;;;;;11.95;9.73;;;;;;;;;;5003288;28;20255;-75
2022/03/23 05:00:28;;;;;;;11.88;9.13;;;;;;;;;;5011547;28;20208;-75
2022/03/23 05:02:55;;;;;;;11.02;9.00;;;;;;;;;;5005884;28;20648;-75
2022/03/23 05:05:22;;;;;;;12.25;8.75;;;;;;;;;;5000485;28;20683;-74
2022/03/23 05:07:49;;;;;;;13.30;9.15;;;;;;;;;;5013893;28;20691;-74
2022/03/23 05:10:16;;;;;;;12.98;9.60;;;;;;;;;;5012613;28;20228;-76
2022/03/23 05:12:45;;;;;;;11.32;9.40;;;;;;;;;;5011636;28;20195;-74
2022/03/23 05:15:14;;;;;;;11.63;9.68;;;;;;;;;;5002256;28;20205;-76
2022/03/23 05:17:41;;;;;;;13.02;9.85;;;;;;;;;;5010135;28;20208;-75
2022/03/23 05:20:09;;;;;;;12.57;9.32;;;;;;;;;;5005027;28;20652;-77
2022/03/23 05:22:37;;;;;;;11.35;10.07;;;;;;;;;;4996090;28;20238;-76
2022/03/23 05:25:04;;;;;;;11.55;9.05;;;;;;;;;;5008360;28;20235;-75
2022/03/23 05:27:34;;;;;;;10.63;9.52;;;;;;;;;;5011885;28;20745;-75
2022/03/23 05:30:04;;;;;;;11.82;8.95;;;;;;;;;;4992114;28;20232;-78
2022/03/23 05:32:31;;;;;;;10.38;9.05;;;;;;;;;;4994741;28;20668;-76
2022/03/23 05:34:58;;;;;;;12.98;8.73;;;;;;;;;;5006796;28;20208;-77
2022/03/23 05:37:25;;;;;;;9.80;8.55;;;;;;;;;;5006032;28;20359;-75
2022/03/23 05:39:52;;;;;;;14.85;9.52;;;;;;;;;;5001471;28;20671;-74
2022/03/23 05:42:19;;;;;;;13.13;8.82;;;;;;;;;;4996240;28;20679;-76
2022/03/23 05:44:46;;;;;;;11.65;7.55;;;;;;;;;;5006597;28;20231;-75
2022/03/23 05:47:15;;;;;;;12.10;8.88;;;;;;;;;;5009054;28;20212;-76
2022/03/23 05:49:42;;;;;;;11.00;8.02;;;;;;;;;;5003945;28;20208;-75
2022/03/23 05:52:09;;;;;;;12.48;10.10;;;;;;;;;;4997300;28;20196;-74
2022/03/23 05:54:36;;;;;;;14.88;10.55;;;;;;;;;;5008028;28;20215;-75
2022/03/23 05:57:03;;;;;;;11.38;9.80;;;;;;;;;;4999490;28;20204;-75
2022/03/23 05:59:31;;;;;;;11.68;10.20;;;;;;;;;;5008553;28;20727;-75
2022/03/23 06:01:58;;;;;;;15.02;10.50;;;;;;;;;;5005633;28;20228;-76
2022/03/23 06:04:27;;;;;;;10.40;9.23;;;;;;;;;;5009633;28;20662;-74
2022/03/23 06:06:54;;;;;;;10.13;9.02;;;;;;;;;;5012149;28;20220;-75
2022/03/23 06:09:21;;;;;;;9.98;8.95;;;;;;;;;;5004721;28;20208;-75
2022/03/23 06:11:48;;;;;;;13.38;9.70;;;;;;;;;;5000434;28;20222;-77
2022/03/23 06:14:15;;;;;;;12.88;9.38;;;;;;;;;;5009299;28;20196;-76
2022/03/23 06:16:42;;;;;;;17.30;9.65;;;;;;;;;;4995894;28;20193;-75
2022/03/23 06:19:13;;;;;;;15.40;9.70;;;;;;;;;;4995420;28;20192;-76
2022/03/23 06:21:42;;;;;;;10.50;9.40;;;;;;;;;;5004138;28;20648;-76
2022/03/23 06:24:09;;;;;;;11.88;9.55;;;;;;;;;;5002707;28;20204;-75
2022/03/23 06:26:36;;;;;;;11.65;9.65;;;;;;;;;;4991494;28;20706;-75
2022/03/23 06:29:03;;;;;;;14.63;11.60;;;;;;;;;;4992143;28;20620;-75
2022/03/23 06:31:30;;;;;;;14.15;11.13;;;;;;;;;;4998820;28;20202;-75
2022/03/23 06:33:57;;;;;;;14.23;10.23;;;;;;;;;;5003666;28;20204;-75
2022/03/23 06:36:24;;;;;;;19.33;12.23;;;;;;;;;;5008765;28;20199;-76
2022/03/23 06:38:52;;;;;;;17.80;11.30;;;;;;;;;;5022947;28;20196;-76
2022/03/23 06:41:19;;;;;;;15.98;10.80;;;;;;;;;;5004502;28;20200;-75
2022/03/23 06:43:47;;;;;;;12.40;11.10;;;;;;;;;;4996237;28;20568;-76
2022/03/23 06:46:14;;;;;;;14.32;10.73;;;;;;;;;;5003159;28;20204;-75
2022/03/23 06:48:41;;;;;;;14.13;11.13;;;;;;;;;;5007028;28;20220;-76
2022/03/23 06:51:08;;;;;;;13.88;10.13;;;;;;;;;;5009857;28;20200;-75
2022/03/23 06:53:35;;;;;;;13.15;10.02;;;;;;;;;;4999655;28;20196;-75
2022/03/23 06:56:04;;;;;;;11.95;9.73;;;;;;;;;;4991031;28;20216;-76
2022/03/23 06:58:31;;;;;;;12.70;10.05;;;;;;;;;;5007965;28;20195;-77
2022/03/23 07:00:59;;;;;;;15.65;10.35;;;;;;;;;;5008550;28;20207;-75
2022/03/23 07:03:27;;;;;;;14.20;11.05;;;;;;;;;;5008097;28;20287;-76
2022/03/23 07:05:54;;;;;;;17.67;13.35;;;;;;;;;;5008463;28;20284;-74
2022/03/23 07:11:07;;;;;;;14.38;11.43;;;;;;;;;;4993676;28;20208;-75
2022/03/23 07:13:34;;;;;;;18.27;12.35;;;;;;;;;;5008231;28;20559;-75
2022/03/23 07:16:01;;;;;;;17.27;12.45;;;;;;;;;;5002610;28;20204;-75
2022/03/23 07:18:28;;;;;;;13.38;11.80;;;;;;;;;;4999739;28;20208;-77
2022/03/23 07:20:55;;;;;;;12.68;9.65;;;;;;;;;;5002756;28;20205;-76
2022/03/23 07:23:22;;;;;;;11.65;10.30;;;;;;;;;;4999245;28;20201;-75
2022/03/23 07:25:49;;;;;;;13.30;9.80;;;;;;;;;;4993940;28;20652;-76
2022/03/23 07:28:18;;;;;;;12.82;10.10;;;;;;;;;;4997723;28;20224;-74
2022/03/23 07:30:45;;;;;;;11.00;9.35;;;;;;;;;;5003513;28;20195;-75
2022/03/23 07:33:12;;;;;;;12.07;9.75;;;;;;;;;;5013975;28;20670;-75
2022/03/23 07:35:39;;;;;;;12.15;8.35;;;;;;;;;;5004080;28;20208;-74
2022/03/23 07:38:06;;;;;;;10.23;8.82;;;;;;;;;;5002522;28;20656;-75
2022/03/23 07:40:33;;;;;;;10.95;8.70;;;;;;;;;;5006655;28;20217;-75
2022/03/23 07:43:00;;;;;;;11.20;8.88;;;;;;;;;;4994724;28;20189;-74
2022/03/23 07:45:29;;;;;;;9.80;8.57;;;;;;;;;;5001963;28;20211;-74
2022/03/23 07:47:56;;;;;;;9.55;8.55;;;;;;;;;;5002457;28;20212;-75
2022/03/23 07:50:23;;;;;;;10.00;8.60;;;;;;;;;;5010460;28;20620;-74
2022/03/23 07:52:51;;;;;;;11.38;8.48;;;;;;;;;;5003315;28;20204;-76
2022/03/23 07:55:18;;;;;;;13.85;8.32;;;;;;;;;;5006806;28;20224;-75
2022/03/23 07:57:46;;;;;;;14.98;9.80;;;;;;;;;;4993898;28;20208;-74
2022/03/23 08:00:14;;;;;;;8.95;8.05;;;;;;;;;;5007229;28;20252;-74
2022/03/23 08:02:42;;;;;;;9.82;8.80;;;;;;;;;;5003776;28;20212;-75
2022/03/23 08:05:10;;;;;;;10.38;7.97;;;;;;;;;;5010633;28;20219;-75
2022/03/23 08:07:37;;;;;;;9.23;8.30;;;;;;;;;;5012955;28;20313;-75
2022/03/23 08:10:05;;;;;;;10.10;8.35;;;;;;;;;;5015467;28;20196;-75
2022/03/23 08:12:32;;;;;;;9.60;7.65;;;;;;;;;;5009634;28;20196;-75
2022/03/23 08:14:59;;;;;;;10.68;7.65;;;;;;;;;;5002639;28;20200;-75
2022/03/23 08:17:26;;;;;;;9.68;8.65;;;;;;;;;;5005653;28;20621;-75
2022/03/23 08:22:36;;;;;;;11.13;9.20;;;;;;;;;;5003898;28;20193;-75
2022/03/23 08:25:03;;;;;;;8.93;8.05;;;;;;;;;;5011253;28;20575;-76
2022/03/23 08:27:30;;;;;;;12.77;7.70;;;;;;;;;;5008952;28;20683;-76
2022/03/23 08:29:57;;;;;;;8.15;6.80;;;;;;;;;;5009226;28;20200;-76
2022/03/23 08:32:26;;;;;;;9.80;8.10;;;;;;;;;;5013025;28;20227;-76
2022/03/23 08:34:54;;;;;;;9.13;8.07;;;;;;;;;;5011705;28;20200;-74
2022/03/23 08:37:21;;;;;;;8.93;8.02;;;;;;;;;;5009420;28;20193;-75
2022/03/23 08:39:48;;;;;;;8.32;7.50;;;;;;;;;;5027024;28;20203;-76
2022/03/23 08:42:15;;;;;;;7.65;6.65;;;;;;;;;;5008687;28;20564;-78
2022/03/23 08:44:45;;;;;;;9.10;7.85;;;;;;;;;;5003723;28;20312;-76
2022/03/23 08:47:12;;;;;;;11.98;7.70;;;;;;;;;;5008512;28;20705;-75
2022/03/23 08:49:39;;;;;;;9.60;7.75;;;;;;;;;;5014819;28;20211;-75
2022/03/23 08:52:07;;;;;;;8.40;7.57;;;;;;;;;;5016717;28;20196;-73
2022/03/23 08:54:35;;;;;;;9.73;8.38;;;;;;;;;;5018294;28;20223;-75
2022/03/23 08:57:03;;;;;;;9.10;8.20;;;;;;;;;;4998414;28;20224;-76
2022/03/23 08:59:31;;;;;;;8.80;7.80;;;;;;;;;;4996414;28;20200;-77
2022/03/23 09:01:58;;;;;;;9.80;7.70;;;;;;;;;;5010116;28;20200;-77
2022/03/23 09:04:25;;;;;;;8.18;7.38;;;;;;;;;;5010835;28;20192;-76
2022/03/23 09:06:52;;;;;;;7.97;7.18;;;;;;;;;;5009030;28;20211;-76
2022/03/23 09:09:20;;;;;;;9.00;8.10;;;;;;;;;;5014810;28;20230;-76
2022/03/23 09:11:47;;;;;;;8.98;7.22;;;;;;;;;;5011499;28;20207;-75
2022/03/23 09:14:14;;;;;;;9.48;8.48;;;;;;;;;;5010315;28;20561;-76
2022/03/23 09:16:43;;;;;;;8.15;7.32;;;;;;;;;;5006691;28;20199;-77
2022/03/23 09:19:12;;;;;;;10.30;8.52;;;;;;;;;;4992795;28;20712;-75
2022/03/23 09:21:39;;;;;;;7.75;6.70;;;;;;;;;;4994422;28;20193;-76
2022/03/23 09:24:07;;;;;;;8.20;7.40;;;;;;;;;;4992361;28;20735;-75
2022/03/23 09:26:35;;;;;;;8.27;6.55;;;;;;;;;;5007168;28;20656;-76
2022/03/23 09:29:03;;;;;;;9.15;7.32;;;;;;;;;;5004667;28;20221;-75
2022/03/23 09:31:30;;;;;;;9.30;8.38;;;;;;;;;;5001267;28;20197;-76
2022/03/23 09:33:57;;;;;;;8.32;7.40;;;;;;;;;;5012139;28;20212;-76
2022/03/23 09:39:05;;;;;;;8.60;7.80;;;;;;;;;;5012589;28;20205;-76
2022/03/23 09:41:34;;;;;;;12.07;7.22;;;;;;;;;;5003773;28;20208;-76
2022/03/23 09:44:03;;;;;;;9.27;7.60;;;;;;;;;;5010279;28;20203;-77
2022/03/23 09:46:32;;;;;;;12.63;7.55;;;;;;;;;;5003527;28;20547;-76
2022/03/23 09:48:59;;;;;;;8.73;7.88;;;;;;;;;;5004174;28;20220;-76
2022/03/23 09:51:27;;;;;;;9.70;8.75;;;;;;;;;;5004824;28;20197;-76
2022/03/23 09:53:54;;;;;;;11.10;8.80;;;;;;;;;;4995332;28;20211;-76
2022/03/23 09:56:21;;;;;;;13.40;8.13;;;;;;;;;;4998356;28;20216;-76
2022/03/23 09:58:48;;;;;;;13.70;8.70;;;;;;;;;;4993274;28;20208;-75
2022/03/23 10:01:46;;;;;;;14.35;9.48;;;;;;;;;;4992575;28;20208;-75
2022/03/23 10:04:28;;;;;;;16.50;9.65;;;;;;;;;;4998683;28;20205;-75
2022/03/23 10:07:13;;;;;;;9.55;8.35;;;;;;;;;;4998658;28;20200;-75
2022/03/23 10:09:55;;;;;;;11.77;10.57;;;;;;;;;;5012316;28;20658;-75
2022/03/23 10:12:55;;;;;;;14.75;8.73;;;;;;;;;;5009852;28;20248;-76
2022/03/23 10:15:57;;;;;;;12.30;8.73;;;;;;;;;;4999898;28;20295;-75
2022/03/23 10:18:38;;;;;;;11.68;8.25;;;;;;;;;;5003428;28;20199;-75
2022/03/23 10:21:05;;;;;;;12.00;9.70;;;;;;;;;;5010736;28;20805;-76
2022/03/23 10:23:32;;;;;;;13.70;10.20;;;;;;;;;;4998645;28;20197;-76
2022/03/23 10:26:11;;;;;;;12.80;9.85;;;;;;;;;;5005569;28;20235;-76
2022/03/23 10:28:38;;;;;;;14.77;9.93;;;;;;;;;;5009440;28;20255;-77
2022/03/23 10:31:15;;;;;;;13.43;10.77;;;;;;;;;;5000778;28;20208;-76
2022/03/23 10:33:43;;;;;;;12.52;9.95;;;;;;;;;;5023654;28;20199;-75
2022/03/23 10:36:11;;;;;;;12.45;10.23;;;;;;;;;;5030501;28;20218;-77
2022/03/23 10:38:39;;;;;;;13.82;10.18;;;;;;;;;;5007829;28;20242;-76
2022/03/23 10:41:10;;;;;;;12.82;9.85;;;;;;;;;;5008770;28;20710;-78
2022/03/23 10:43:50;;;;;;;14.85;10.23;;;;;;;;;;5000599;28;20299;-75
2022/03/23 10:46:17;;;;;;;14.25;10.52;;;;;;;;;;5004038;28;20560;-74
2022/03/23 10:48:53;;;;;;;15.05;10.77;;;;;;;;;;5001831;28;20227;-75
2022/03/23 10:51:26;;;;;;;12.45;9.35;;;;;;;;;;5000320;28;20232;-75
2022/03/23 10:53:53;;;;;;;16.17;10.85;;;;;;;;;;5000393;28;20208;-76
2022/03/23 10:56:29;;;;;;;12.55;10.85;;;;;;;;;;5000342;28;20231;-76
2022/03/23 10:59:15;;;;;;;12.23;10.13;;;;;;;;;;5009212;28;20200;-75
2022/03/23 11:01:58;;;;;;;12.48;10.52;;;;;;;;;;5002158;28;20481;-75
2022/03/23 11:04:29;;;;;;;11.38;9.23;;;;;;;;;;5001741;28;20742;-75
2022/03/23 11:06:58;;;;;;;13.95;10.10;;;;;;;;;;5004107;28;20201;-75
2022/03/23 11:17:50;;;;;;;15.70;10.00;;;;;;;;;;5007350;28;20203;-77
2022/03/23 11:20:18;;;;;;;13.90;10.18;;;;;;;;;;5008457;28;20236;-76
2022/03/23 11:22:45;;;;;;;14.70;10.20;;;;;;;;;;4998863;28;20208;-76
2022/03/23 11:25:13;;;;;;;12.68;9.98;;;;;;;;;;5011036;28;20204;-77
2022/03/23 11:27:40;;;;;;;12.25;8.88;;;;;;;;;;5006366;28;20648;-76
2022/03/23 11:30:08;;;;;;;13.05;10.95;;;;;;;;;;5009128;28;20192;-76
2022/03/23 11:32:37;;;;;;;18.45;11.50;;;;;;;;;;5025831;28;20208;-76
2022/03/23 11:35:05;;;;;;;13.07;11.68;;;;;;;;;;5007787;28;20192;-76
2022/03/23 11:37:35;;;;;;;12.95;11.38;;;;;;;;;;5004989;28;20196;-74
2022/03/23 11:40:03;;;;;;;14.05;11.98;;;;;;;;;;5003987;28;20711;-76
2022/03/23 11:42:30;;;;;;;23.55;17.50;;;;;;;;;;5015190;28;20196;-76
2022/03/23 11:44:58;;;;;;;24.20;15.80;;;;;;;;;;5003974;28;20219;-77
2022/03/23 11:47:33;;;;;;;21.90;15.52;;;;;;;;;;4993945;28;20684;-76
2022/03/23 11:50:04;;;;;;;18.08;14.35;;;;;;;;;;5019202;28;20228;-77
2022/03/23 11:52:35;;;;;;;16.10;12.52;;;;;;;;;;5011795;28;20614;-78
2022/03/23 11:58:04;;;;;;;15.98;13.63;;;;;;;;;;5002166;28;20199;-78
2022/03/23 12:00:38;;;;;;;17.85;14.23;;;;;;;;;;5004879;28;20287;-77
2022/03/23 12:03:05;;;;;;;15.07;11.90;;;;;;;;;;5001307;28;20567;-77
2022/03/23 12:05:33;;;;;;;19.13;11.88;;;;;;;;;;5003686;28;20559;-77
2022/03/23 12:08:01;;;;;;;14.73;12.32;;;;;;;;;;5010464;28;20203;-78
2022/03/23 12:10:30;;;;;;;13.40;11.20;;;;;;;;;;5008900;28;20663;-77
2022/03/23 12:12:58;;;;;;;14.85;10.90;;;;;;;;;;5009769;28;20722;-78
2022/03/23 12:15:25;;;;;;;14.82;11.27;;;;;;;;;;5003983;28;20204;-76
2022/03/23 12:17:59;;;;;;;11.02;9.88;;;;;;;;;;5008289;28;20594;-77
2022/03/23 12:20:28;;;;;;;11.38;9.95;;;;;;;;;;5001959;28;20212;-77
2022/03/23 12:23:26;;;;;;;14.77;11.05;;;;;;;;;;5007824;28;20231;-77
2022/03/23 12:25:55;;;;;;;13.27;9.80;;;;;;;;;;4995089;28;20556;-77
2022/03/23 12:28:27;;;;;;;15.10;11.30;;;;;;;;;;5003473;28;20217;-77
2022/03/23 12:31:07;;;;;;;12.50;10.00;;;;;;;;;;4996262;28;20212;-77
2022/03/23 12:33:54;;;;;;;11.95;10.65;;;;;;;;;;5010235;28;20228;-77
2022/03/23 12:36:28;;;;;;;16.20;11.02;;;;;;;;;;5009542;28;20204;-79
2022/03/23 12:39:00;;;;;;;11.32;9.90;;;;;;;;;;5011739;28;20290;-76
2022/03/23 12:41:41;;;;;;;14.93;10.10;;;;;;;;;;5000145;28;20564;-76
2022/03/23 12:44:12;;;;;;;11.93;10.10;;;;;;;;;;5005578;28;20196;-78
2022/03/23 12:46:44;;;;;;;10.93;9.77;;;;;;;;;;5000239;28;20201;-76
2022/03/23 13:00:25;;;;;;;13.73;11.32;;;;;;;;;;4999191;28;20571;-75
2022/03/23 13:03:03;;;;;;;18.05;10.43;;;;;;;;;;5021966;28;20206;-76
2022/03/23 13:05:31;;;;;;;10.80;9.18;;;;;;;;;;5006557;28;20219;-75
2022/03/23 13:07:59;;;;;;;14.32;10.65;;;;;;;;;;5017997;28;20204;-76
2022/03/23 13:10:27;;;;;;;11.70;9.30;;;;;;;;;;5008712;28;20200;-75
2022/03/23 13:13:06;;;;;;;10.63;8.65;;;;;;;;;;4999233;28;20219;-76
2022/03/23 13:15:34;;;;;;;11.68;10.10;;;;;;;;;;5001412;28;20279;-75
2022/03/23 13:18:01;;;;;;;12.15;9.70;;;;;;;;;;5001633;28;20211;-76
2022/03/23 13:20:29;;;;;;;10.55;9.10;;;;;;;;;;5004534;28;20204;-76
2022/03/23 13:22:56;;;;;;;11.18;8.57;;;;;;;;;;5008705;28;20464;-77
2022/03/23 13:25:23;;;;;;;11.00;9.35;;;;;;;;;;4989912;28;20558;-75
2022/03/23 13:27:52;;;;;;;11.52;8.57;;;;;;;;;;5002509;28;20212;-75
2022/03/23 13:30:23;;;;;;;11.65;9.90;;;;;;;;;;4998616;28;20216;-75
2022/03/23 13:32:50;;;;;;;10.77;9.65;;;;;;;;;;4990946;28;20219;-75
2022/03/23 13:35:18;;;;;;;13.77;9.75;;;;;;;;;;5009456;28;20200;-75
2022/03/23 13:37:56;;;;;;;10.77;7.90;;;;;;;;;;5007896;28;20207;-75
2022/03/23 13:40:25;;;;;;;10.55;8.60;;;;;;;;;;5010245;28;20222;-76
2022/03/23 13:45:43;;;;;;;13.90;9.43;;;;;;;;;;4999768;28;20275;-76
2022/03/23 13:48:10;;;;;;;12.20;9.60;;;;;;;;;;5003943;28;20473;-77
2022/03/23 13:50:44;;;;;;;13.43;8.15;;;;;;;;;;5008461;28;20307;-77
2022/03/23 13:53:13;;;;;;;11.40;8.80;;;;;;;;;;5006485;28;20735;-78
2022/03/23 13:55:41;;;;;;;11.38;8.07;;;;;;;;;;5011369;28;20228;-77
2022/03/23 13:58:10;;;;;;;11.98;8.90;;;;;;;;;;5009382;28;20619;-76
2022/03/23 14:00:38;;;;;;;13.85;10.02;;;;;;;;;;5002503;28;20201;-76
2022/03/23 14:03:06;;;;;;;10.88;9.18;;;;;;;;;;5017232;28;20262;-77
2022/03/23 14:05:33;;;;;;;11.70;9.63;;;;;;;;;;5003721;28;20199;-77
2022/03/23 14:08:01;;;;;;;11.38;8.85;;;;;;;;;;5006244;28;20314;-77
2022/03/23 14:10:33;;;;;;;11.10;9.98;;;;;;;;;;4990157;28;20263;-76
2022/03/23 14:13:04;;;;;;;10.50;8.80;;;;;;;;;;5000572;28;20270;-76
2022/03/23 14:15:35;;;;;;;10.50;8.85;;;;;;;;;;4999316;28;20205;-77
2022/03/23 14:18:02;;;;;;;14.63;10.65;;;;;;;;;;5003432;28;20193;-77
2022/03/23 14:20:30;;;;;;;12.10;10.07;;;;;;;;;;4999491;28;20192;-76
2022/03/23 14:22:57;;;;;;;9.25;8.05;;;;;;;;;;5001232;28;20204;-76
2022/03/23 14:25:26;;;;;;;13.57;9.75;;;;;;;;;;5011452;28;20203;-76
2022/03/23 14:27:55;;;;;;;15.70;11.68;;;;;;;;;;5019926;28;20714;-76
2022/03/23 14:30:22;;;;;;;12.45;10.05;;;;;;;;;;5003641;28;20265;-77
2022/03/23 14:32:57;;;;;;;11.27;8.20;;;;;;;;;;5004554;28;20661;-74
2022/03/23 14:35:36;;;;;;;13.90;10.43;;;;;;;;;;4994614;28;20294;-75
2022/03/23 14:38:08;;;;;;;12.70;10.57;;;;;;;;;;5004964;28;20293;-76
2022/03/23 14:40:36;;;;;;;11.30;10.10;;;;;;;;;;5008028;28;20191;-77
2022/03/23 14:43:04;;;;;;;11.52;10.30;;;;;;;;;;5006873;28;20307;-74
2022/03/23 14:45:36;;;;;;;11.88;9.20;;;;;;;;;;4999241;28;20675;-75
2022/03/23 14:48:15;;;;;;;12.75;10.30;;;;;;;;;;4995673;28;20218;-77
2022/03/23 14:50:43;;;;;;;18.40;10.93;;;;;;;;;;5003490;28;20975;-75
2022/03/23 14:53:10;;;;;;;14.63;10.48;;;;;;;;;;5001461;28;20204;-77
2022/03/23 14:55:38;;;;;;;17.67;11.40;;;;;;;;;;5004567;28;20244;-74
2022/03/23 14:58:05;;;;;;;16.48;11.90;;;;;;;;;;5001926;28;20211;-78
2022/03/23 15:00:33;;;;;;;15.20;11.40;;;;;;;;;;5000502;28;20222;-77
2022/03/23 15:03:00;;;;;;;14.80;11.50;;;;;;;;;;5008062;28;20286;-76
2022/03/23 15:13:42;;;;;;;11.35;9.90;;;;;;;;;;5009440;28;20254;-77
2022/03/23 15:16:09;;;;;;;14.38;12.18;;;;;;;;;;4994195;28;20568;-77
2022/03/23 15:18:36;;;;;;;11.27;10.15;;;;;;;;;;4992375;28;20204;-78
2022/03/23 15:21:05;;;;;;;15.07;11.50;;;;;;;;;;4994688;28;20197;-77
2022/03/23 15:23:32;;;;;;;16.27;11.75;;;;;;;;;;5001186;28;20208;-75
2022/03/23 15:25:59;;;;;;;11.38;9.40;;;;;;;;;;5010260;28;20576;-77
2022/03/23 15:28:26;;;;;;;12.55;11.27;;;;;;;;;;5005857;28;20211;-76
2022/03/23 15:30:53;;;;;;;14.52;12.07;;;;;;;;;;5005470;28;20219;-77